Christine Anderson — WCN2606 — position and weather

sailwx.info

Track history (hours):
 
Tides and Currents Weather Stations Pressure Air Temp Water Temp Dewpoint Dewpoint Depression Visibility Wind Speed Wind Dir Waves Ship Positions

Christine Anderson

Owner: PIERCE, COUNTY OF, TACOMA, WA. More information available from US FCC via Universal Licensing System and Coast Guard Vessel Documentation Center.

Last reported at 2016-Aug-22 02:07 UTC. Time now 2016-Aug-26 03:13 UTC.
Position N 47°10' W 122°36'.

MMSI: 366659730.

Date/timePositionNaut miles runAvg speedWind from/ knotsBaromVisibWave heightAir tempDewpointWater temp
2016-Aug-22 02:07N 47°10' W 122°36'3 5.1
2016-Aug-22 01:31N 47°11' W 122°41'0 0.5
2016-Aug-22 00:33N 47°11' W 122°40'2 2.0
2016-Aug-21 23:33N 47°11' W 122°37'0 0.1
2016-Aug-21 22:33N 47°11' W 122°37'0 0.2
2016-Aug-21 21:33N 47°11' W 122°37'1 0.8
2016-Aug-21 20:33N 47°10' W 122°36'0 0.4
2016-Aug-21 19:33N 47°11' W 122°37'0 0.0
2016-Aug-20 02:04N 47°10' W 122°36'3 3.4
2016-Aug-20 01:18N 47°11' W 122°40'0 0.4
2016-Aug-20 00:33N 47°11' W 122°40'2 1.8
2016-Aug-19 23:33N 47°11' W 122°37'0 0.2
2016-Aug-19 22:33N 47°11' W 122°37'0 0.2
2016-Aug-19 21:33N 47°11' W 122°37'1 0.8
2016-Aug-19 20:26N 47°10' W 122°36'0 0.5
2016-Aug-19 19:33N 47°11' W 122°37'0 0.0
2016-Aug-18 15:23N 47°10' W 122°36'0 0.0
2016-Aug-18 14:33N 47°10' W 122°36'  
2016-Aug-15 01:33N 47°11' W 122°41'0 0.3
2016-Aug-15 00:22N 47°11' W 122°40'0 0.4
2016-Aug-14 23:31N 47°11' W 122°41'0 0.4
2016-Aug-14 22:32N 47°11' W 122°40'0 0.5
2016-Aug-14 21:33N 47°11' W 122°39'2 2.0
2016-Aug-14 20:33N 47°11' W 122°36'3 2.7
2016-Aug-14 19:29N 47°11' W 122°41'3 3.1
2016-Aug-14 18:32N 47°10' W 122°36'3 2.8
2016-Aug-14 17:26N 47°11' W 122°41'0 0.6
2016-Aug-14 16:32N 47°11' W 122°40'0 0.2
2016-Aug-14 15:33N 47°11' W 122°40'0 0.2
2016-Aug-14 14:33N 47°11' W 122°40'2 2.4
2016-Aug-14 13:33N 47°10' W 122°36'0 0.0
2016-Aug-14 04:28N 47°10' W 122°36'0 0.1
2016-Aug-14 03:27N 47°10' W 122°36'1 1.3
2016-Aug-14 02:28N 47°10' W 122°38'1 1.4
2016-Aug-14 01:33N 47°10' W 122°36'0 0.0
2016-Aug-14 00:20N 47°10' W 122°36'0 0.0
2016-Aug-13 23:17N 47°10' W 122°36'1 0.9
2016-Aug-13 22:33N 47°11' W 122°37'2 1.8
2016-Aug-13 21:33N 47°11' W 122°40'0 0.2
2016-Aug-13 19:33N 47°11' W 122°40'3 2.1
2016-Aug-13 18:12N 47°10' W 122°36'3 3.8
2016-Aug-13 17:25N 47°11' W 122°41'0 0.3
2016-Aug-13 16:34N 47°11' W 122°40'0 0.2
2016-Aug-13 15:32N 47°11' W 122°40'0 0.2
2016-Aug-13 14:33N 47°11' W 122°40'2 2.4
2016-Aug-13 13:34N 47°10' W 122°36'0 0.0
2016-Aug-13 12:31N 47°10' W 122°36'3 0.4
2016-Aug-13 06:33N 47°11' W 122°40'3 2.6
2016-Aug-13 05:33N 47°10' W 122°36'0 0.0
2016-Aug-13 04:32N 47°10' W 122°36'0 0.0
2016-Aug-13 03:33N 47°10' W 122°36'1 1.3
2016-Aug-13 02:34N 47°10' W 122°38'1 1.0
2016-Aug-13 01:16N 47°11' W 122°36'0 0.4
2016-Aug-13 00:33N 47°11' W 122°37'2 1.6
2016-Aug-12 23:33N 47°11' W 122°39'0 0.5
2016-Aug-12 22:33N 47°11' W 122°40'0 0.5
2016-Aug-12 21:33N 47°11' W 122°39'2 1.5
2016-Aug-12 20:15N 47°10' W 122°36'3 4.3
2016-Aug-12 19:33N 47°11' W 122°41'3 2.9
2016-Aug-12 18:31N 47°10' W 122°36'3 3.1
2016-Aug-12 17:33N 47°11' W 122°41'0 0.0
2016-Aug-12 16:33N 47°11' W 122°41'0 0.1
2016-Aug-12 15:32N 47°11' W 122°41'0 0.3
2016-Aug-12 14:33N 47°11' W 122°40'3 2.7
2016-Aug-12 13:33N 47°10' W 122°36'0 0.0
2016-Aug-12 12:33N 47°10' W 122°36'0 0.0
2016-Aug-12 11:33N 47°10' W 122°36'0 0.0
2016-Aug-12 04:29N 47°10' W 122°36'0 0.0
2016-Aug-12 03:33N 47°10' W 122°36'1 1.3
2016-Aug-12 02:34N 47°10' W 122°38'  
Track history (hours):
 
Tides and Currents Weather Stations Pressure Air Temp Water Temp Dewpoint Dewpoint Depression Visibility Wind Speed Wind Dir Waves Ship Positions

Christine Anderson

Owner: PIERCE, COUNTY OF, TACOMA, WA. More information available from US FCC via Universal Licensing System and Coast Guard Vessel Documentation Center.

Last reported at 2016-Aug-22 02:07 UTC. Time now 2016-Aug-26 03:13 UTC.
Position N 47°10' W 122°36'.

MMSI: 366659730.

Date/timePositionNaut miles runAvg speedWind from/ knotsBaromVisibWave heightAir tempDewpointWater temp
2016-Aug-22 02:07N 47°10' W 122°36'3 5.1
2016-Aug-22 01:31N 47°11' W 122°41'0 0.5
2016-Aug-22 00:33N 47°11' W 122°40'2 2.0
2016-Aug-21 23:33N 47°11' W 122°37'0 0.1
2016-Aug-21 22:33N 47°11' W 122°37'0 0.2
2016-Aug-21 21:33N 47°11' W 122°37'1 0.8
2016-Aug-21 20:33N 47°10' W 122°36'0 0.4
2016-Aug-21 19:33N 47°11' W 122°37'0 0.0
2016-Aug-20 02:04N 47°10' W 122°36'3 3.4
2016-Aug-20 01:18N 47°11' W 122°40'0 0.4
2016-Aug-20 00:33N 47°11' W 122°40'2 1.8
2016-Aug-19 23:33N 47°11' W 122°37'0 0.2
2016-Aug-19 22:33N 47°11' W 122°37'0 0.2
2016-Aug-19 21:33N 47°11' W 122°37'1 0.8
2016-Aug-19 20:26N 47°10' W 122°36'0 0.5
2016-Aug-19 19:33N 47°11' W 122°37'0 0.0
2016-Aug-18 15:23N 47°10' W 122°36'0 0.0
2016-Aug-18 14:33N 47°10' W 122°36'  
2016-Aug-15 01:33N 47°11' W 122°41'0 0.3
2016-Aug-15 00:22N 47°11' W 122°40'0 0.4
2016-Aug-14 23:31N 47°11' W 122°41'0 0.4
2016-Aug-14 22:32N 47°11' W 122°40'0 0.5
2016-Aug-14 21:33N 47°11' W 122°39'2 2.0
2016-Aug-14 20:33N 47°11' W 122°36'3 2.7
2016-Aug-14 19:29N 47°11' W 122°41'3 3.1
2016-Aug-14 18:32N 47°10' W 122°36'3 2.8
2016-Aug-14 17:26N 47°11' W 122°41'0 0.6
2016-Aug-14 16:32N 47°11' W 122°40'0 0.2
2016-Aug-14 15:33N 47°11' W 122°40'0 0.2
2016-Aug-14 14:33N 47°11' W 122°40'2 2.4
2016-Aug-14 13:33N 47°10' W 122°36'0 0.0
2016-Aug-14 04:28N 47°10' W 122°36'0 0.1
2016-Aug-14 03:27N 47°10' W 122°36'1 1.3
2016-Aug-14 02:28N 47°10' W 122°38'1 1.4
2016-Aug-14 01:33N 47°10' W 122°36'0 0.0
2016-Aug-14 00:20N 47°10' W 122°36'0 0.0
2016-Aug-13 23:17N 47°10' W 122°36'1 0.9
2016-Aug-13 22:33N 47°11' W 122°37'2 1.8
2016-Aug-13 21:33N 47°11' W 122°40'0 0.2
2016-Aug-13 19:33N 47°11' W 122°40'3 2.1
2016-Aug-13 18:12N 47°10' W 122°36'3 3.8
2016-Aug-13 17:25N 47°11' W 122°41'0 0.3
2016-Aug-13 16:34N 47°11' W 122°40'0 0.2
2016-Aug-13 15:32N 47°11' W 122°40'0 0.2
2016-Aug-13 14:33N 47°11' W 122°40'2 2.4
2016-Aug-13 13:34N 47°10' W 122°36'0 0.0
2016-Aug-13 12:31N 47°10' W 122°36'3 0.4
2016-Aug-13 06:33N 47°11' W 122°40'3 2.6
2016-Aug-13 05:33N 47°10' W 122°36'0 0.0
2016-Aug-13 04:32N 47°10' W 122°36'0 0.0
2016-Aug-13 03:33N 47°10' W 122°36'1 1.3
2016-Aug-13 02:34N 47°10' W 122°38'1 1.0
2016-Aug-13 01:16N 47°11' W 122°36'0 0.4
2016-Aug-13 00:33N 47°11' W 122°37'2 1.6
2016-Aug-12 23:33N 47°11' W 122°39'0 0.5
2016-Aug-12 22:33N 47°11' W 122°40'0 0.5
2016-Aug-12 21:33N 47°11' W 122°39'2 1.5
2016-Aug-12 20:15N 47°10' W 122°36'3 4.3
2016-Aug-12 19:33N 47°11' W 122°41'3 2.9
2016-Aug-12 18:31N 47°10' W 122°36'3 3.1
2016-Aug-12 17:33N 47°11' W 122°41'0 0.0
2016-Aug-12 16:33N 47°11' W 122°41'0 0.1
2016-Aug-12 15:32N 47°11' W 122°41'0 0.3
2016-Aug-12 14:33N 47°11' W 122°40'3 2.7
2016-Aug-12 13:33N 47°10' W 122°36'0 0.0
2016-Aug-12 12:33N 47°10' W 122°36'0 0.0
2016-Aug-12 11:33N 47°10' W 122°36'0 0.0
2016-Aug-12 04:29N 47°10' W 122°36'0 0.0
2016-Aug-12 03:33N 47°10' W 122°36'1 1.3
2016-Aug-12 02:34N 47°10' W 122°38'  

Dump ship's entire track history